Time;durP1;ratioP1;P1;durP2;ratioP2;P2;SDS_P1;SDS_P2;PMS_P1;PMS_P2;Temp;Humidity;BMP_temperature;BMP_pressure;BME280_temperature;BME280_humidity;BME280_pressure;Samples;Min_cycle;Max_cycle;Signal;HPM_P1;HPM_P2
2021/03/18 00:05:14;;;;;;;34.63;20.85;;;103.00;2227.20;;;;;;4941622;28;20075;-82
2021/03/18 00:08:24;;;;;;;36.08;23.88;;;103.00;2227.20;;;;;;4941093;29;20016;-81
2021/03/18 00:14:24;;;;;;;36.58;23.83;;;103.00;2227.20;;;;;;4909311;26;20425;-78
2021/03/18 00:16:50;;;;;;;35.28;21.70;;;103.00;2227.20;;;;;;4941599;29;20031;-77
2021/03/18 00:19:16;;;;;;;26.75;18.15;;;103.00;2227.20;;;;;;4941287;29;20039;-79
2021/03/18 00:21:42;;;;;;;25.38;16.50;;;103.00;2227.20;;;;;;4958629;29;20031;-78
2021/03/18 00:24:09;;;;;;;32.90;20.55;;;102.70;2227.20;;;;;;4957744;29;20074;-77
2021/03/18 00:26:35;;;;;;;28.35;18.02;;;103.10;2227.20;;;;;;4958274;29;20035;-78
2021/03/18 00:29:04;;;;;;;26.15;18.70;;;103.00;2227.20;;;;;;4956803;29;20055;-77
2021/03/18 00:31:32;;;;;;;28.00;20.10;;;103.10;2227.20;;;;;;4958253;29;20031;-77
2021/03/18 00:33:58;;;;;;;38.38;22.15;;;103.10;2227.20;;;;;;4938295;28;20023;-77
2021/03/18 00:36:25;;;;;;;31.75;20.55;;;103.20;2227.20;;;;;;4937611;29;20035;-78
2021/03/18 00:38:52;;;;;;;36.28;24.10;;;103.10;2227.20;;;;;;4919947;29;20363;-77
2021/03/18 00:41:19;;;;;;;33.40;22.55;;;103.10;2227.20;;;;;;4938051;29;20031;-78
2021/03/18 00:43:45;;;;;;;37.30;27.65;;;103.10;2227.20;;;;;;4938201;29;20491;-77
2021/03/18 00:46:11;;;;;;;35.55;21.83;;;103.10;2227.20;;;;;;4921086;29;20062;-76
2021/03/18 00:49:31;;;;;;;29.60;19.65;;;103.10;2227.20;;;;;;4937036;29;20027;-81
2021/03/18 00:53:07;;;;;;;28.65;20.20;;;103.10;2227.20;;;;;;4903995;29;20021;-81
2021/03/18 01:02:47;;;;;;;30.08;19.50;;;103.10;2227.20;;;;;;4998975;28;20063;-81
2021/03/18 01:06:29;;;;;;;34.08;22.73;;;103.10;2227.20;;;;;;4939188;29;20067;-81
2021/03/18 01:20:02;;;;;;;29.25;19.35;;;103.00;2227.20;;;;;;4900494;29;20148;-81
2021/03/18 01:23:11;;;;;;;27.95;20.10;;;103.00;2227.20;;;;;;4899436;29;20044;-81
2021/03/18 01:26:40;;;;;;;30.00;21.52;;;103.00;2227.20;;;;;;4885962;29;20037;-82
2021/03/18 01:33:47;;;;;;;30.88;20.75;;;103.00;2227.20;;;;;;4883933;29;20040;-80
2021/03/18 01:37:11;;;;;;;27.08;19.25;;;103.00;2227.20;;;;;;4865170;29;20029;-81
2021/03/18 01:48:08;;;;;;;30.17;20.52;;;103.00;2227.20;;;;;;4864289;29;20051;-80
2021/03/18 01:51:34;;;;;;;29.25;20.05;;;103.00;2227.20;;;;;;4840113;29;20031;-81
2021/03/18 01:55:29;;;;;;;29.05;19.90;;;103.00;2227.20;;;;;;4810005;30;20054;-81
2021/03/18 02:02:26;;;;;;;33.20;20.83;;;102.90;2227.20;;;;;;4817160;29;20114;-82
2021/03/18 02:09:15;;;;;;;25.95;17.83;;;102.90;2227.20;;;;;;4793305;29;20058;-81
2021/03/18 02:12:29;;;;;;;27.42;19.05;;;102.90;2227.20;;;;;;4790890;29;20144;-80
2021/03/18 02:26:12;;;;;;;30.98;21.23;;;102.80;2227.20;;;;;;4808082;29;20124;-81
2021/03/18 02:33:01;;;;;;;29.48;19.48;;;102.80;2227.20;;;;;;4845184;29;20071;-80
2021/03/18 02:50:48;;;;;;;26.08;17.55;;;102.90;2227.20;;;;;;4772822;30;20093;-81
2021/03/18 03:45:35;;;;;;;20.63;15.45;;;102.60;2227.20;;;;;;4960372;29;20043;-81
2021/03/18 03:56:00;;;;;;;19.25;13.20;;;102.60;2227.20;;;;;;4999030;28;20014;-81
2021/03/18 04:52:35;;;;;;;30.50;22.17;;;102.50;2227.20;;;;;;4932264;29;20066;-81
2021/03/18 04:59:12;;;;;;;27.50;18.67;;;102.50;2227.20;;;;;;4958043;29;20059;-80
2021/03/18 05:02:47;;;;;;;22.90;16.08;;;102.50;2227.20;;;;;;4939261;29;20037;-81
2021/03/18 05:07:08;;;;;;;27.88;19.63;;;102.40;2227.20;;;;;;4883459;29;20097;-81
2021/03/18 05:10:46;;;;;;;25.45;17.17;;;102.40;2227.20;;;;;;4864381;29;20030;-81
2021/03/18 05:14:29;;;;;;;33.78;21.90;;;102.40;2227.20;;;;;;4864127;29;20030;-81
2021/03/18 05:18:24;;;;;;;27.20;18.40;;;102.40;2227.20;;;;;;4846760;29;20018;-81
2021/03/18 05:25:41;;;;;;;43.15;29.63;;;102.40;2227.20;;;;;;4792263;29;20050;-81
2021/03/18 05:36:40;;;;;;;34.10;21.05;;;102.40;2227.20;;;;;;4825574;29;20068;-81
2021/03/18 05:54:01;;;;;;;27.73;19.83;;;102.40;2227.20;;;;;;4807591;30;20123;-80
2021/03/18 06:04:46;;;;;;;20.83;15.07;;;77.70;2227.20;;;;;;4756527;30;20074;-81
2021/03/18 06:18:21;;;;;;;28.20;16.40;;;102.50;2227.20;;;;;;4798879;29;20045;-80
2021/03/18 06:35:31;;;;;;;29.88;22.40;;;102.60;2227.20;;;;;;4881052;29;20075;-82
2021/03/18 06:42:27;;;;;;;28.13;19.58;;;102.70;2227.20;;;;;;4883119;29;20053;-82
2021/03/18 06:49:31;;;;;;;29.52;20.98;;;102.70;2227.20;;;;;;4846565;29;20061;-81
2021/03/18 06:52:48;;;;;;;29.92;20.85;;;102.70;2227.20;;;;;;4844529;29;20015;-80
2021/03/18 06:59:43;;;;;;;28.02;20.08;;;102.70;2227.20;;;;;;4782393;30;20028;-81
2021/03/18 07:03:15;;;;;;;31.30;21.63;;;102.70;2227.20;;;;;;4727967;30;20121;-82
2021/03/18 07:07:00;;;;;;;27.23;18.48;;;102.80;2227.20;;;;;;4733118;30;20056;-81
2021/03/18 07:28:36;;;;;;;27.85;20.35;;;128.10;2252.80;;;;;;4794041;29;20042;-80
2021/03/18 07:32:32;;;;;;;21.00;14.40;;;128.30;2252.80;;;;;;4795059;29;20073;-82
2021/03/18 07:36:12;;;;;;;20.50;15.13;;;128.30;2252.80;;;;;;4795301;30;20117;-82
2021/03/18 07:39:28;;;;;;;29.33;20.67;;;128.30;2252.80;;;;;;4759305;30;20041;-81
2021/03/18 07:42:40;;;;;;;26.67;17.85;;;128.30;2252.80;;;;;;4759574;30;20041;-81
2021/03/18 08:41:50;;;;;;;28.95;22.00;;;154.20;2252.80;;;;;;4978822;28;20063;-81
2021/03/18 08:52:35;;;;;;;35.25;19.95;;;154.20;2252.80;;;;;;4951796;28;20082;-79
2021/03/18 09:06:18;;;;;;;22.58;14.50;;;179.20;2252.80;;;;;;4850714;29;20120;-79
2021/03/18 09:40:45;;;;;;;24.75;15.77;;;179.30;2252.80;;;;;;4976757;29;20046;-79
2021/03/18 09:43:15;;;;;;;28.70;18.55;;;179.50;2252.80;;;;;;4950414;29;20035;-79
2021/03/18 09:46:05;;;;;;;24.10;17.88;;;179.50;2252.80;;;;;;4954158;29;20038;-78
2021/03/18 09:48:41;;;;;;;61.53;44.90;;;179.50;2252.80;;;;;;4954747;29;20465;-78
2021/03/18 09:51:13;;;;;;;37.65;25.30;;;179.50;2252.80;;;;;;4969628;29;20437;-78
2021/03/18 09:53:41;;;;;;;26.23;17.27;;;179.60;2252.80;;;;;;4952090;29;20058;-78
2021/03/18 09:56:15;;;;;;;25.13;17.40;;;179.50;2252.80;;;;;;4955675;29;20317;-78
2021/03/18 09:59:46;;;;;;;29.58;19.92;;;179.40;2252.80;;;;;;4971156;28;20043;-80
2021/03/18 10:03:10;;;;;;;22.60;15.48;;;179.50;2252.80;;;;;;4898794;29;20111;-80
2021/03/18 10:13:39;;;;;;;18.35;13.23;;;179.70;2252.80;;;;;;4883986;29;20041;-80
2021/03/18 10:16:56;;;;;;;19.85;12.68;;;179.70;2227.20;;;;;;4882026;29;20085;-79
2021/03/18 10:19:59;;;;;;;34.25;20.92;;;179.90;2252.80;;;;;;4788932;29;20040;-80
2021/03/18 10:36:35;;;;;;;20.45;13.10;;;180.10;2150.40;;;;;;4806634;29;20136;-77
2021/03/18 10:39:10;;;;;;;28.70;18.55;;;180.10;2227.20;;;;;;4800089;29;20062;-78
2021/03/18 10:41:53;;;;;;;26.70;18.48;;;180.10;2150.40;;;;;;4815900;29;20031;-77
2021/03/18 10:44:20;;;;;;;;;;;204.90;2227.20;;;;;;4924401;29;20378;-79
2021/03/18 10:46:48;;;;;;;20.35;12.95;;;204.90;2073.60;;;;;;4909849;29;19907;-80
2021/03/18 10:49:15;;;;;;;15.77;10.73;;;180.10;2124.80;;;;;;4910244;29;20036;-77
2021/03/18 10:51:51;;;;;;;14.20;10.15;;;180.10;2124.80;;;;;;4910616;29;20103;-78
2021/03/18 10:54:22;;;;;;;20.52;14.25;;;180.00;2073.60;;;;;;4910780;29;20032;-80
2021/03/18 10:56:51;;;;;;;17.77;12.98;;;180.00;2099.20;;;;;;4909047;29;20043;-80
2021/03/18 10:59:21;;;;;;;18.05;13.15;;;180.10;2201.60;;;;;;4922042;29;20039;-78
2021/03/18 13:13:02;;;;;;;11.45;8.82;;;307.20;1484.80;;;;;;4964648;28;20117;-91
2021/03/18 13:25:40;;;;;;;13.38;7.10;;;307.60;1433.60;;;;;;4976137;28;20037;-89
2021/03/18 13:28:06;;;;;;;16.75;10.38;;;307.70;1382.40;;;;;;4958970;28;20027;-90
2021/03/18 13:30:32;;;;;;;20.73;12.25;;;307.30;1408.00;;;;;;4959039;28;20027;-90
2021/03/18 13:32:59;;;;;;;32.88;20.38;;;282.30;1510.40;;;;;;4958821;28;20034;-91
2021/03/18 13:35:26;;;;;;;30.42;22.83;;;281.90;1510.40;;;;;;4959456;28;20034;-91
2021/03/18 13:37:52;;;;;;;22.73;16.95;;;281.80;1561.60;;;;;;4960521;28;20034;-89
2021/03/18 13:43:38;;;;;;;29.88;20.98;;;256.50;1894.40;;;;;;4976374;28;20461;-90
2021/03/18 13:56:30;;;;;;;50.85;32.00;;;231.20;2073.60;;;;;;4978350;28;20085;-89
2021/03/18 14:00:04;;;;;;;28.63;18.92;;;231.10;2073.60;;;;;;4895505;29;20494;-89
2021/03/18 14:03:18;;;;;;;27.83;18.70;;;230.70;1996.80;;;;;;4824025;29;20555;-89
2021/03/18 14:10:27;;;;;;;37.38;25.50;;;230.70;1996.80;;;;;;4881999;29;20142;-87
2021/03/18 14:24:03;;;;;;;54.42;34.55;;;230.40;2252.80;;;;;;4934279;29;20062;-87
2021/03/18 14:56:03;;;;;;;39.90;32.08;;;231.10;2124.80;;;;;;4955872;29;20111;-87
2021/03/18 14:58:29;;;;;;;42.53;37.83;;;231.10;2176.00;;;;;;4938610;29;20537;-87
2021/03/18 15:00:56;;;;;;;58.20;45.78;;;231.00;2176.00;;;;;;4938573;29;20027;-88
2021/03/18 15:03:22;;;;;;;39.38;31.35;;;230.80;2124.80;;;;;;4938382;29;20062;-88
2021/03/18 15:43:30;;;;;;;72.55;49.55;;;205.10;2227.20;;;;;;4963198;29;20086;-85
2021/03/18 15:46:08;;;;;;;71.30;45.95;;;205.00;2176.00;;;;;;4956993;29;20035;-84
2021/03/18 15:51:42;;;;;;;65.03;43.00;;;180.10;2252.80;;;;;;4999462;23;20062;-84
2021/03/18 15:54:21;;;;;;;80.63;51.03;;;204.90;2227.20;;;;;;4955362;28;20658;-82
2021/03/18 15:56:46;;;;;;;91.80;58.17;;;204.90;2227.20;;;;;;4959441;28;20034;-81
2021/03/18 15:59:12;;;;;;;168.88;94.60;;;204.90;2227.20;;;;;;4959466;28;20022;-81
2021/03/18 16:01:38;;;;;;;136.50;80.50;;;204.80;2124.80;;;;;;4959793;28;20031;-82
2021/03/18 16:04:05;;;;;;;107.07;64.28;;;204.80;2201.60;;;;;;4960914;28;20361;-83
2021/03/18 16:06:32;;;;;;;50.92;34.75;;;204.80;2150.40;;;;;;4958979;28;20492;-79
2021/03/18 16:09:02;;;;;;;48.58;33.42;;;180.10;2201.60;;;;;;4977807;28;20047;-82
2021/03/18 16:11:30;;;;;;;54.53;35.70;;;180.00;2176.00;;;;;;4966750;28;20030;-82
2021/03/18 16:14:12;;;;;;;62.38;36.08;;;180.00;2227.20;;;;;;4985360;28;20037;-81
2021/03/18 16:16:49;;;;;;;51.08;33.33;;;179.80;2227.20;;;;;;4967126;28;20067;-82
2021/03/18 16:19:31;;;;;;;51.97;35.15;;;179.70;2252.80;;;;;;4980837;28;20070;-82
2021/03/18 16:22:24;;;;;;;73.47;45.30;;;179.70;2252.80;;;;;;4984333;28;20035;-82
2021/03/18 16:24:52;;;;;;;61.63;41.22;;;179.60;2252.80;;;;;;4991716;28;20034;-82
2021/03/18 16:27:39;;;;;;;60.67;43.15;;;179.50;2252.80;;;;;;4998815;28;20038;-81
2021/03/18 16:37:15;;;;;;;65.53;46.00;;;179.30;2252.80;;;;;;4999664;28;20050;-81
2021/03/18 16:39:44;;;;;;;63.90;41.97;;;179.40;2252.80;;;;;;4980674;28;20011;-82
2021/03/18 16:42:40;;;;;;;63.88;43.15;;;179.30;2252.80;;;;;;4964607;28;20067;-81
2021/03/18 16:45:53;;;;;;;127.85;85.53;;;179.30;2252.80;;;;;;4901963;29;20057;-81
2021/03/18 16:48:47;;;;;;;67.87;45.60;;;179.20;2252.80;;;;;;4916870;29;20040;-81
2021/03/18 16:51:32;;;;;;;58.17;41.08;;;179.20;2252.80;;;;;;4909328;29;20024;-78
2021/03/18 16:53:59;;;;;;;60.03;40.50;;;179.20;2252.80;;;;;;4907638;29;20045;-75
2021/03/18 16:56:26;;;;;;;55.85;38.40;;;154.50;2252.80;;;;;;4939426;28;20035;-78
2021/03/18 16:58:54;;;;;;;47.10;33.42;;;179.20;2252.80;;;;;;4970268;28;20011;-80
2021/03/18 17:01:22;;;;;;;47.40;34.70;;;154.50;2252.80;;;;;;4967724;28;20023;-78
2021/03/18 17:03:48;;;;;;;47.97;30.88;;;154.50;2252.80;;;;;;4967744;28;20034;-81
2021/03/18 17:06:15;;;;;;;39.40;30.83;;;154.50;2252.80;;;;;;4975945;28;20014;-80
2021/03/18 17:08:46;;;;;;;49.55;37.80;;;154.50;2252.80;;;;;;4974162;28;20049;-80
2021/03/18 17:11:36;;;;;;;57.85;36.60;;;154.50;2252.80;;;;;;4979860;28;20079;-81
2021/03/18 17:14:12;;;;;;;62.05;38.83;;;154.50;2252.80;;;;;;4977938;28;20039;-78
2021/03/18 17:16:39;;;;;;;78.72;45.60;;;154.50;2252.80;;;;;;4962155;28;20035;-78
2021/03/18 17:19:05;;;;;;;56.38;36.70;;;154.50;2252.80;;;;;;4972717;28;20049;-78
2021/03/18 17:24:16;;;;;;;51.97;34.03;;;179.30;2252.80;;;;;;5012686;23;20059;-77
2021/03/18 17:26:44;;;;;;;43.53;29.95;;;154.30;2252.80;;;;;;4945742;29;20059;-77
2021/03/18 17:29:11;;;;;;;45.22;30.58;;;154.50;2252.80;;;;;;4926938;29;20036;-77
2021/03/18 17:31:38;;;;;;;60.58;40.00;;;154.50;2252.80;;;;;;4922553;29;20051;-75
2021/03/18 17:34:05;;;;;;;56.63;40.60;;;154.50;2252.80;;;;;;4939591;29;20035;-77
2021/03/18 17:36:31;;;;;;;66.05;46.15;;;154.40;2252.80;;;;;;4924746;29;20036;-76
2021/03/18 17:38:57;;;;;;;70.55;45.08;;;154.40;2252.80;;;;;;4920483;29;20031;-76
2021/03/18 17:41:22;;;;;;;71.97;46.28;;;154.50;2252.80;;;;;;4937573;29;20030;-75
2021/03/18 17:43:49;;;;;;;71.05;47.60;;;154.50;2252.80;;;;;;4937216;29;20023;-75
2021/03/18 17:46:15;;;;;;;57.72;40.03;;;179.30;2252.80;;;;;;4936971;29;20062;-75
2021/03/18 17:48:41;;;;;;;42.83;30.75;;;179.20;2252.80;;;;;;4920049;29;20059;-75
2021/03/18 17:51:07;;;;;;;50.08;35.28;;;154.50;2252.80;;;;;;4937351;29;20031;-75
2021/03/18 17:53:35;;;;;;;63.13;41.00;;;154.50;2252.80;;;;;;4937139;29;20028;-75
2021/03/18 17:56:01;;;;;;;63.42;41.83;;;154.50;2252.80;;;;;;4920465;29;20445;-75
2021/03/18 17:58:27;;;;;;;64.40;42.92;;;179.20;2252.80;;;;;;4939038;29;20085;-81
2021/03/18 18:00:53;;;;;;;75.88;48.20;;;154.50;2252.80;;;;;;4923164;29;20035;-79
2021/03/18 18:03:19;;;;;;;67.88;46.88;;;154.50;2252.80;;;;;;4939723;29;20023;-79
2021/03/18 18:05:45;;;;;;;71.43;48.80;;;154.40;2252.80;;;;;;4924643;29;20386;-79
2021/03/18 18:08:11;;;;;;;65.95;42.92;;;154.30;2252.80;;;;;;4920272;29;20034;-77
2021/03/18 18:10:38;;;;;;;72.60;45.53;;;154.30;2252.80;;;;;;4920131;29;20028;-77
2021/03/18 18:13:06;;;;;;;77.43;49.40;;;154.40;2252.80;;;;;;4937038;29;20509;-77
2021/03/18 18:15:33;;;;;;;82.05;54.45;;;154.30;2252.80;;;;;;4924325;29;20028;-79
2021/03/18 18:17:59;;;;;;;62.33;42.88;;;154.30;2252.80;;;;;;4932806;29;20035;-79
2021/03/18 18:20:31;;;;;;;67.68;45.92;;;154.10;2252.80;;;;;;4930291;29;20036;-79
2021/03/18 18:22:57;;;;;;;58.60;40.13;;;154.20;2252.80;;;;;;4930680;29;20122;-78
2021/03/18 18:25:24;;;;;;;42.92;30.98;;;154.20;2252.80;;;;;;4945467;29;20043;-79
2021/03/18 18:27:52;;;;;;;49.88;32.72;;;154.00;2252.80;;;;;;4942644;29;20122;-79
2021/03/18 18:30:20;;;;;;;42.55;26.85;;;154.00;2252.80;;;;;;4928780;29;20397;-79
2021/03/18 18:32:46;;;;;;;50.33;32.67;;;154.10;2252.80;;;;;;4934179;29;20024;-79
2021/03/18 18:35:15;;;;;;;44.97;31.95;;;154.10;2252.80;;;;;;4932095;29;20028;-80
2021/03/18 18:37:42;;;;;;;43.70;31.88;;;154.20;2252.80;;;;;;4934617;29;20027;-80
2021/03/18 18:40:11;;;;;;;55.00;39.47;;;154.10;2252.80;;;;;;4935410;29;20027;-80
2021/03/18 18:42:37;;;;;;;47.65;33.88;;;154.10;2252.80;;;;;;4934081;29;20385;-82
2021/03/18 18:45:04;;;;;;;41.55;29.42;;;154.00;2252.80;;;;;;4936816;29;20024;-80
2021/03/18 18:47:30;;;;;;;41.15;28.13;;;154.00;2252.80;;;;;;4933813;29;20027;-76
2021/03/18 18:50:14;;;;;;;58.28;35.47;;;154.10;2252.80;;;;;;4937815;29;20099;-77
2021/03/18 18:52:48;;;;;;;65.05;37.63;;;154.10;2252.80;;;;;;4955584;29;20055;-79
2021/03/18 18:55:16;;;;;;;31.63;22.17;;;154.10;2252.80;;;;;;4943179;29;20036;-79
2021/03/18 18:58:03;;;;;;;32.50;24.55;;;154.00;2252.80;;;;;;4945751;29;20011;-79
2021/03/18 19:01:27;;;;;;;110.70;60.33;;;154.00;2252.80;;;;;;5122673;23;20030;-80
2021/03/18 19:04:36;;;;;;;77.60;57.60;;;153.90;2252.80;;;;;;4981560;23;20029;-79
2021/03/18 19:07:03;;;;;;;69.38;55.35;;;153.90;2252.80;;;;;;5003425;28;20029;-78
2021/03/18 19:09:29;;;;;;;66.13;52.72;;;128.40;2252.80;;;;;;4999742;28;20180;-79
2021/03/18 19:11:55;;;;;;;49.55;37.72;;;153.90;2252.80;;;;;;5003537;28;20042;-79
2021/03/18 19:14:21;;;;;;;63.05;39.75;;;153.80;2252.80;;;;;;4999215;28;20030;-79
2021/03/18 19:16:47;;;;;;;49.00;36.30;;;153.80;2252.80;;;;;;4997772;28;20050;-79
2021/03/18 19:19:19;;;;;;;40.47;30.17;;;153.80;2252.80;;;;;;4999341;28;20030;-80
2021/03/18 19:21:54;;;;;;;35.67;26.52;;;153.80;2252.80;;;;;;4994779;28;20042;-79
2021/03/18 19:24:20;;;;;;;41.03;33.05;;;153.70;2252.80;;;;;;4971309;29;20039;-78
2021/03/18 19:26:46;;;;;;;44.15;31.67;;;153.60;2252.80;;;;;;4957143;29;20126;-79
2021/03/18 19:29:13;;;;;;;37.53;29.27;;;128.50;2252.80;;;;;;4961367;29;20035;-78
2021/03/18 19:31:40;;;;;;;42.92;29.60;;;153.70;2252.80;;;;;;4978598;28;20062;-79
2021/03/18 19:34:09;;;;;;;41.85;28.10;;;153.70;2252.80;;;;;;4984043;28;20056;-79
2021/03/18 19:36:39;;;;;;;38.75;27.52;;;153.60;2252.80;;;;;;5095033;23;20078;-79
2021/03/18 19:39:27;;;;;;;48.70;34.95;;;128.90;2252.80;;;;;;4967549;28;20043;-78
2021/03/18 19:42:08;;;;;;;45.05;28.85;;;128.90;2252.80;;;;;;4973643;28;20042;-78
2021/03/18 19:45:14;;;;;;;41.08;28.33;;;153.80;2252.80;;;;;;4979054;28;20035;-80
2021/03/18 19:48:16;;;;;;;34.83;24.33;;;128.80;2252.80;;;;;;5232796;23;20039;-80
2021/03/18 19:50:48;;;;;;;30.47;24.13;;;128.70;2252.80;;;;;;4942056;29;20058;-80
2021/03/18 19:53:15;;;;;;;60.80;40.13;;;128.70;2252.80;;;;;;4925582;29;20031;-79
2021/03/18 19:55:41;;;;;;;43.30;28.92;;;128.70;2252.80;;;;;;4919781;29;20028;-80
2021/03/18 19:58:11;;;;;;;44.03;27.55;;;128.60;2252.80;;;;;;4925750;29;20100;-79
2021/03/18 20:01:28;;;;;;;57.67;39.50;;;128.70;2252.80;;;;;;4942097;29;20050;-81
2021/03/18 20:04:14;;;;;;;36.72;25.80;;;128.70;2252.80;;;;;;4950056;28;20042;-80
2021/03/18 20:06:45;;;;;;;39.53;31.40;;;128.70;2252.80;;;;;;4939480;29;20028;-82
2021/03/18 20:09:51;;;;;;;38.55;31.40;;;128.60;2252.80;;;;;;4942917;29;20036;-82
2021/03/18 20:16:14;;;;;;;35.90;27.33;;;128.30;2252.80;;;;;;5170377;23;20063;-80
2021/03/18 20:18:57;;;;;;;36.78;26.15;;;128.50;2252.80;;;;;;4937721;29;20042;-80
2021/03/18 20:22:15;;;;;;;39.22;29.73;;;128.40;2252.80;;;;;;4958909;28;20086;-79
2021/03/18 20:25:41;;;;;;;34.63;23.50;;;128.40;2252.80;;;;;;4938450;28;20032;-79
2021/03/18 20:29:11;;;;;;;45.20;33.90;;;128.40;2252.80;;;;;;4953498;29;20011;-80
2021/03/18 20:32:53;;;;;;;39.75;26.38;;;128.50;2252.80;;;;;;4923040;29;20051;-80
2021/03/18 20:39:49;;;;;;;37.72;27.65;;;128.50;2252.80;;;;;;4923416;29;20053;-82
2021/03/18 20:43:10;;;;;;;49.38;34.00;;;128.60;2252.80;;;;;;4923551;29;20041;-82
2021/03/18 20:48:31;;;;;;;65.15;44.33;;;128.20;2252.80;;;;;;5026691;23;20053;-81
2021/03/18 21:00:10;;;;;;;135.95;89.00;;;128.70;2252.80;;;;;;5463603;23;20051;-80
2021/03/18 21:06:45;;;;;;;84.78;54.40;;;128.30;2252.80;;;;;;4965790;28;20100;-80
2021/03/18 21:17:28;;;;;;;70.55;49.25;;;102.80;2227.20;;;;;;4977786;28;20055;-81
2021/03/18 21:19:55;;;;;;;77.57;51.13;;;103.30;2227.20;;;;;;4948399;28;20039;-80
2021/03/18 21:25:23;;;;;;;87.28;58.90;;;102.70;2227.20;;;;;;5022666;23;20079;-80
2021/03/18 21:28:48;;;;;;;73.55;47.28;;;103.10;2227.20;;;;;;4902106;29;20044;-81
2021/03/18 21:38:51;;;;;;;67.38;44.75;;;128.00;2252.80;;;;;;4980317;28;20083;-81
2021/03/18 21:41:18;;;;;;;70.78;45.88;;;128.30;2252.80;;;;;;5116818;23;20050;-80
2021/03/18 21:43:55;;;;;;;73.55;48.80;;;128.30;2252.80;;;;;;4947624;28;20023;-80
2021/03/18 22:01:19;;;;;;;60.25;40.45;;;102.80;2227.20;;;;;;4956923;28;20062;-81
2021/03/18 22:04:25;;;;;;;65.60;42.53;;;103.10;2227.20;;;;;;4953483;28;20090;-81
2021/03/18 22:07:38;;;;;;;60.33;37.40;;;103.20;2227.20;;;;;;4932122;28;20078;-80
2021/03/18 22:37:03;;;;;;;78.80;51.13;;;103.00;2227.20;;;;;;4960137;29;20101;-82
2021/03/18 22:39:29;;;;;;;82.97;51.80;;;102.90;2227.20;;;;;;4933445;29;20054;-80
2021/03/18 22:41:55;;;;;;;77.70;51.22;;;103.20;2227.20;;;;;;4935332;29;20032;-80
2021/03/18 22:44:33;;;;;;;70.60;51.15;;;103.30;2227.20;;;;;;4918098;29;20027;-77
2021/03/18 22:50:39;;;;;;;62.92;38.85;;;128.00;2252.80;;;;;;4939644;29;20092;-79
2021/03/18 22:53:06;;;;;;;69.90;47.00;;;103.00;2227.20;;;;;;4933467;29;20031;-77
2021/03/18 22:55:35;;;;;;;68.80;44.72;;;102.70;2227.20;;;;;;4948196;29;20431;-77
2021/03/18 22:58:01;;;;;;;58.28;38.75;;;103.10;2227.20;;;;;;4934702;29;20035;-79
2021/03/18 23:00:28;;;;;;;68.80;46.28;;;103.30;2227.20;;;;;;4923071;29;20069;-78
2021/03/18 23:02:57;;;;;;;71.93;47.05;;;103.30;2227.20;;;;;;4935850;29;20032;-78
2021/03/18 23:05:23;;;;;;;67.75;42.72;;;128.10;2252.80;;;;;;4912164;29;20025;-77
2021/03/18 23:07:56;;;;;;;73.45;46.95;;;128.10;2252.80;;;;;;4916935;29;20043;-78
2021/03/18 23:11:25;;;;;;;75.28;49.42;;;128.90;2252.80;;;;;;4932268;29;20024;-79
2021/03/18 23:14:12;;;;;;;80.35;49.20;;;103.30;2227.20;;;;;;4890113;29;20035;-77
2021/03/18 23:16:49;;;;;;;77.18;49.45;;;103.20;2227.20;;;;;;4875566;29;20036;-77
2021/03/18 23:19:32;;;;;;;72.03;45.30;;;103.20;2227.20;;;;;;4886409;29;20036;-78
2021/03/18 23:22:25;;;;;;;87.57;50.25;;;128.00;2252.80;;;;;;4872643;29;20029;-78
2021/03/18 23:24:53;;;;;;;92.57;56.47;;;128.00;2252.80;;;;;;4885671;29;20491;-77
2021/03/18 23:27:21;;;;;;;85.22;53.03;;;128.10;2252.80;;;;;;4886465;29;20068;-78
2021/03/18 23:29:48;;;;;;;78.30;49.45;;;128.20;2252.80;;;;;;4872837;29;20089;-78
2021/03/18 23:32:14;;;;;;;78.47;50.80;;;128.20;2252.80;;;;;;4873216;29;20033;-78
2021/03/18 23:34:41;;;;;;;83.18;54.08;;;128.30;2252.80;;;;;;4868792;29;20048;-78
2021/03/18 23:37:09;;;;;;;79.35;48.72;;;128.20;2252.80;;;;;;4886839;29;20041;-78
2021/03/18 23:39:36;;;;;;;76.32;50.50;;;128.20;2252.80;;;;;;4882738;29;20127;-78
2021/03/18 23:42:04;;;;;;;80.10;50.13;;;128.20;2252.80;;;;;;4895906;29;20025;-78
2021/03/18 23:44:30;;;;;;;88.05;54.30;;;128.10;2252.80;;;;;;4913147;29;20032;-78
2021/03/18 23:46:58;;;;;;;92.28;55.97;;;128.10;2252.80;;;;;;4928689;29;20397;-78
2021/03/18 23:49:25;;;;;;;181.60;95.50;;;103.20;2227.20;;;;;;4928240;29;20032;-78
2021/03/18 23:51:51;;;;;;;171.63;93.15;;;103.00;2227.20;;;;;;4914484;29;20020;-78
2021/03/18 23:54:17;;;;;;;120.10;69.35;;;103.00;2227.20;;;;;;4914926;29;20048;-77
2021/03/18 23:56:44;;;;;;;114.30;67.18;;;102.80;2227.20;;;;;;4913261;29;20032;-77
2021/03/18 23:59:49;;;;;;;123.88;75.60;;;128.00;2252.80;;;;;;4930529;29;20028;-79
